createdAt,value
2022-08-03T00:00:42.519Z,79.46
2022-08-03T00:03:11.093Z,79.55
2022-08-03T00:05:40.391Z,80.18
2022-08-03T00:08:28.951Z,80.04
2022-08-03T00:10:57.595Z,80.20
2022-08-03T00:13:27.162Z,81.15
2022-08-03T00:15:55.977Z,80.33
2022-08-03T00:18:25.014Z,79.81
2022-08-03T00:20:53.755Z,79.23
2022-08-03T00:23:22.421Z,78.88
2022-08-03T00:25:51.102Z,78.74
2022-08-03T00:28:19.795Z,78.36
2022-08-03T00:30:49.235Z,78.10
2022-08-03T00:33:19.148Z,77.91
2022-08-03T00:35:52.954Z,77.70
2022-08-03T00:38:21.463Z,78.33
2022-08-03T00:40:50.135Z,78.17
2022-08-03T00:43:19.257Z,78.55
2022-08-03T00:45:48.375Z,78.86
2022-08-03T00:48:32.929Z,78.96
2022-08-03T00:51:02.851Z,79.71
2022-08-03T00:53:32.475Z,78.72
2022-08-03T00:56:01.088Z,79.70
2022-08-03T00:58:29.801Z,79.10
2022-08-03T01:00:59.247Z,79.90
2022-08-03T01:03:28.626Z,79.73
2022-08-03T01:06:21.108Z,79.91
2022-08-03T01:09:03.568Z,80.05
2022-08-03T01:12:12.957Z,80.76
2022-08-03T01:15:34.413Z,80.03
2022-08-03T01:18:26.311Z,79.53
2022-08-03T01:21:01.193Z,79.47
2022-08-03T01:23:59.954Z,79.48
2022-08-03T01:27:31.620Z,79.81
2022-08-03T01:30:12.291Z,79.67
2022-08-03T01:33:06.851Z,79.46
2022-08-03T01:36:22.769Z,80.00
2022-08-03T01:39:00.855Z,80.85
2022-08-03T01:41:37.923Z,80.34
2022-08-03T01:44:29.918Z,80.29
2022-08-03T01:47:01.630Z,79.55
2022-08-03T01:49:39.856Z,79.14
2022-08-03T01:52:10.621Z,79.16
2022-08-03T01:54:45.838Z,79.17
2022-08-03T01:57:16.814Z,79.07
2022-08-03T01:59:51.249Z,79.17
2022-08-03T02:02:33.494Z,78.72
2022-08-03T02:05:10.611Z,79.21
2022-08-03T02:07:45.703Z,79.36
2022-08-03T02:10:34.611Z,78.94
2022-08-03T02:13:08.665Z,79.15
2022-08-03T02:15:39.553Z,79.59
2022-08-03T02:18:11.020Z,80.16
2022-08-03T02:20:42.289Z,79.88
2022-08-03T02:23:11.276Z,79.37
2022-08-03T02:25:47.229Z,79.32
2022-08-03T02:28:22.702Z,80.65
2022-08-03T02:30:56.379Z,80.10
2022-08-03T02:33:42.082Z,80.14
2022-08-03T02:36:13.707Z,79.66
2022-08-03T02:38:46.744Z,79.16
2022-08-03T02:41:21.139Z,78.94
2022-08-03T02:44:06.145Z,79.02
2022-08-03T02:46:40.199Z,79.06
2022-08-03T02:49:40.864Z,78.60
2022-08-03T02:52:00.823Z,78.16
2022-08-03T02:54:30.999Z,77.94
2022-08-03T02:57:01.826Z,78.13
2022-08-03T02:59:32.539Z,78.31
2022-08-03T03:02:03.264Z,78.12
2022-08-03T03:04:33.256Z,77.84
2022-08-03T03:07:04.338Z,77.54
2022-08-03T03:09:41.803Z,77.26
2022-08-03T03:12:14.593Z,77.45
2022-08-03T03:14:43.722Z,77.78
2022-08-03T03:17:13.102Z,77.55
2022-08-03T03:19:45.614Z,77.38
2022-08-03T03:22:15.795Z,76.73
2022-08-03T03:24:50.883Z,76.59
2022-08-03T03:27:19.716Z,76.50
2022-08-03T03:29:50.199Z,76.38
2022-08-03T03:32:19.174Z,76.37
2022-08-03T03:34:50.823Z,75.89
2022-08-03T03:37:20.010Z,75.49
2022-08-03T03:39:48.589Z,75.59
2022-08-03T03:42:17.827Z,74.94
2022-08-03T03:44:49.560Z,74.62
2022-08-03T03:47:18.775Z,74.54
2022-08-03T03:50:04.508Z,73.53
2022-08-03T03:52:34.218Z,73.85
2022-08-03T03:55:07.065Z,73.43
2022-08-03T03:57:35.693Z,73.60
2022-08-03T04:00:06.119Z,72.83
2022-08-03T04:02:34.884Z,72.44
2022-08-03T04:05:28.554Z,72.59
2022-08-03T04:08:24.129Z,72.53
2022-08-03T04:11:21.130Z,71.86
2022-08-03T04:14:13.734Z,71.46
2022-08-03T04:16:46.841Z,71.17
2022-08-03T04:19:23.391Z,70.86
2022-08-03T04:21:58.235Z,70.70
2022-08-03T04:24:35.933Z,70.55
2022-08-03T04:27:11.344Z,70.69
2022-08-03T04:29:48.183Z,70.52
2022-08-03T04:32:18.545Z,70.28
2022-08-03T04:34:48.056Z,70.49
2022-08-03T04:37:40.574Z,70.20
2022-08-03T04:40:22.779Z,70.10
2022-08-03T04:42:56.189Z,69.75
2022-08-03T04:45:25.793Z,69.60
2022-08-03T04:47:56.330Z,69.76
2022-08-03T04:50:25.746Z,69.67
2022-08-03T04:53:27.708Z,69.64
2022-08-03T04:55:56.187Z,69.43
2022-08-03T04:58:29.891Z,69.15
2022-08-03T05:00:58.206Z,69.06
2022-08-03T05:03:26.751Z,69.07
2022-08-03T05:06:01.664Z,68.78
2022-08-03T05:08:46.514Z,68.20
2022-08-03T05:11:17.221Z,67.93
2022-08-03T05:13:46.534Z,68.04
2022-08-03T05:16:15.893Z,67.84
2022-08-03T05:18:45.228Z,67.87
2022-08-03T05:21:14.634Z,67.65
2022-08-03T05:23:44.506Z,67.40
2022-08-03T05:26:13.193Z,67.56
2022-08-03T05:28:50.010Z,67.15
2022-08-03T05:31:20.022Z,67.52
2022-08-03T05:33:49.602Z,67.28
2022-08-03T05:36:17.976Z,66.95
2022-08-03T05:38:46.354Z,67.24
2022-08-03T05:41:21.558Z,66.84
2022-08-03T05:43:54.408Z,66.58
2022-08-03T05:46:23.379Z,66.67
2022-08-03T05:48:52.461Z,66.58
2022-08-03T05:51:21.256Z,66.45
2022-08-03T05:53:50.046Z,66.46
2022-08-03T05:56:22.729Z,66.32
2022-08-03T05:58:52.557Z,66.41
2022-08-03T06:01:22.191Z,66.51
2022-08-03T06:03:52.391Z,66.20
2022-08-03T06:06:22.218Z,66.38
2022-08-03T06:08:50.596Z,66.30
2022-08-03T06:11:19.041Z,65.84
2022-08-03T06:13:47.627Z,65.57
2022-08-03T06:16:16.110Z,65.72
2022-08-03T06:18:44.422Z,65.68
2022-08-03T06:21:15.180Z,65.63
2022-08-03T06:23:54.810Z,64.99
2022-08-03T06:26:28.690Z,64.89
2022-08-03T06:28:57.360Z,64.92
2022-08-03T06:31:32.731Z,64.37
2022-08-03T06:34:30.808Z,64.20
2022-08-03T06:37:01.365Z,62.95
2022-08-03T06:39:30.693Z,62.58
2022-08-03T06:41:59.193Z,62.92
2022-08-03T06:44:27.489Z,63.54
2022-08-03T06:46:55.943Z,63.42
2022-08-03T06:49:25.367Z,63.15
2022-08-03T06:52:04.030Z,62.88
2022-08-03T06:54:36.455Z,62.30
2022-08-03T06:57:05.396Z,62.26
2022-08-03T07:00:09.249Z,62.05
2022-08-03T07:02:22.611Z,61.89
2022-08-03T07:04:51.161Z,61.25
2022-08-03T07:07:20.808Z,61.41
2022-08-03T07:09:53.202Z,61.89
2022-08-03T07:12:30.661Z,60.92
2022-08-03T07:15:02.153Z,61.58
2022-08-03T07:17:34.826Z,60.29
2022-08-03T07:20:08.573Z,59.99
2022-08-03T07:22:36.886Z,59.88
2022-08-03T07:25:06.335Z,59.33
2022-08-03T07:27:34.840Z,58.51
2022-08-03T07:30:08.338Z,59.39
2022-08-03T07:32:36.921Z,58.57
2022-08-03T07:35:24.233Z,58.20
2022-08-03T07:37:55.228Z,58.10
2022-08-03T07:40:23.871Z,58.04
2022-08-03T07:42:58.602Z,57.53
2022-08-03T07:45:27.391Z,57.35
2022-08-03T07:47:55.898Z,56.84
2022-08-03T07:50:24.455Z,56.24
2022-08-03T07:52:54.183Z,55.34
2022-08-03T07:55:25.284Z,54.93
2022-08-03T07:58:16.515Z,54.72
2022-08-03T08:00:48.021Z,53.48
2022-08-03T08:03:16.870Z,52.66
2022-08-03T08:05:45.967Z,52.69
2022-08-03T08:08:14.754Z,52.83
2022-08-03T08:10:43.284Z,52.30
2022-08-03T08:13:27.283Z,51.02
2022-08-03T08:15:56.276Z,50.24
2022-08-03T08:18:24.961Z,50.62
2022-08-03T08:20:53.546Z,51.21
2022-08-03T08:23:42.181Z,51.13
2022-08-03T08:26:13.859Z,51.40
2022-08-03T08:28:42.502Z,51.88
2022-08-03T08:31:11.130Z,51.46
2022-08-03T08:34:03.211Z,51.81
2022-08-03T08:36:28.366Z,51.33
2022-08-03T08:38:57.160Z,50.83
2022-08-03T08:41:32.078Z,50.89
2022-08-03T08:44:04.874Z,50.32
2022-08-03T08:46:34.071Z,49.28
2022-08-03T08:49:05.235Z,49.09
2022-08-03T08:51:52.682Z,49.54
2022-08-03T08:54:27.995Z,48.89
2022-08-03T08:57:02.107Z,48.62
2022-08-03T08:59:48.462Z,48.21
2022-08-03T09:02:19.115Z,48.05
2022-08-03T09:04:49.249Z,47.59
2022-08-03T09:07:29.105Z,48.11
2022-08-03T09:10:08.470Z,47.08
2022-08-03T09:12:51.518Z,47.04
2022-08-03T09:15:31.611Z,46.44
2022-08-03T09:18:03.518Z,46.37
2022-08-03T09:20:35.308Z,46.97
2022-08-03T09:23:51.392Z,46.92
2022-08-03T09:26:01.906Z,47.19
2022-08-03T09:29:00.868Z,46.62
2022-08-03T09:31:43.742Z,46.45
2022-08-03T09:34:18.403Z,46.57
2022-08-03T09:36:49.603Z,46.14
2022-08-03T09:39:40.948Z,46.15
2022-08-03T09:42:18.665Z,46.35
2022-08-03T09:44:52.655Z,46.07
2022-08-03T09:47:34.708Z,46.23
2022-08-03T09:50:08.225Z,45.25
2022-08-03T09:52:49.433Z,45.66
2022-08-03T09:56:33.293Z,45.08
2022-08-03T09:58:14.515Z,44.95
2022-08-03T10:01:05.301Z,44.73
2022-08-03T10:03:47.002Z,44.89
2022-08-03T10:06:29.165Z,44.73
2022-08-03T10:09:12.003Z,44.59
2022-08-03T10:11:43.381Z,44.08
2022-08-03T10:14:19.574Z,44.48
2022-08-03T10:16:49.634Z,44.30
2022-08-03T10:19:18.402Z,44.47
2022-08-03T10:22:02.987Z,44.19
2022-08-03T10:24:36.469Z,43.59
2022-08-03T10:27:07.684Z,43.62
2022-08-03T10:29:45.764Z,43.09
2022-08-03T10:32:42.513Z,43.35
2022-08-03T10:35:21.631Z,43.10
2022-08-03T10:37:58.677Z,43.22
2022-08-03T10:43:25.925Z,43.30
2022-08-03T10:45:54.462Z,43.62
2022-08-03T10:48:23.505Z,42.07
2022-08-03T10:50:52.757Z,41.67
2022-08-03T10:53:54.346Z,42.00
2022-08-03T10:57:14.185Z,40.75
2022-08-03T10:59:45.739Z,41.64
2022-08-03T11:02:15.736Z,42.47
2022-08-03T11:04:47.262Z,42.31
2022-08-03T11:07:25.939Z,41.41
2022-08-03T11:09:56.786Z,41.69
2022-08-03T11:12:32.802Z,41.47
2022-08-03T11:15:06.407Z,41.90
2022-08-03T11:17:45.864Z,42.10
2022-08-03T11:20:50.980Z,41.87
2022-08-03T11:24:04.681Z,42.14
2022-08-03T11:26:35.077Z,42.62
2022-08-03T11:29:31.468Z,43.02
2022-08-03T11:31:59.792Z,43.42
2022-08-03T11:34:28.228Z,43.13
2022-08-03T11:37:23.661Z,41.82
2022-08-03T11:39:55.572Z,42.53
2022-08-03T11:42:27.658Z,42.84
2022-08-03T11:45:00.977Z,43.74
2022-08-03T11:47:30.310Z,43.46
2022-08-03T11:50:02.313Z,42.29
2022-08-03T11:52:40.818Z,41.52
2022-08-03T11:55:11.768Z,40.84
2022-08-03T11:59:01.335Z,39.60
2022-08-03T12:00:33.686Z,39.69
2022-08-03T12:03:11.111Z,40.25
2022-08-03T12:05:52.554Z,40.99
2022-08-03T12:08:27.551Z,40.69
2022-08-03T12:11:00.171Z,39.77
2022-08-03T12:14:44.635Z,39.95
2022-08-03T12:16:39.861Z,39.81
2022-08-03T12:19:08.378Z,39.76
2022-08-03T12:21:57.346Z,39.76
2022-08-03T12:24:28.667Z,39.91
2022-08-03T12:27:11.196Z,38.71
2022-08-03T12:29:43.287Z,37.15
2022-08-03T12:32:26.987Z,37.14
2022-08-03T12:35:04.831Z,37.39
2022-08-03T12:37:33.755Z,36.69
2022-08-03T12:40:10.572Z,36.62
2022-08-03T12:42:40.469Z,37.14
2022-08-03T12:45:32.275Z,37.50
2022-08-03T12:48:02.752Z,37.03
2022-08-03T12:50:37.775Z,36.54
2022-08-03T12:53:09.290Z,37.26
2022-08-03T12:55:40.048Z,38.35
2022-08-03T12:58:35.158Z,40.10
2022-08-03T13:01:09.954Z,43.24
2022-08-03T13:03:50.338Z,45.13
2022-08-03T13:06:25.175Z,45.73
2022-08-03T13:09:08.489Z,46.42
2022-08-03T13:11:57.660Z,46.72
2022-08-03T13:14:28.274Z,46.74
2022-08-03T13:16:59.710Z,47.02
2022-08-03T13:19:28.612Z,47.02
2022-08-03T13:22:04.290Z,47.38
2022-08-03T13:24:33.947Z,47.17
2022-08-03T13:28:02.367Z,46.83
2022-08-03T13:29:55.139Z,46.73
2022-08-03T13:32:24.227Z,46.43
2022-08-03T13:34:55.540Z,46.09
2022-08-03T13:37:24.463Z,46.26
2022-08-03T13:39:59.211Z,46.04
2022-08-03T13:42:31.883Z,46.36
2022-08-03T13:45:01.963Z,46.24
2022-08-03T13:47:31.174Z,46.55
2022-08-03T13:50:02.805Z,46.37
2022-08-03T13:52:36.868Z,45.83
2022-08-03T13:55:08.469Z,45.45
2022-08-03T13:58:19.048Z,45.37
2022-08-03T14:00:29.677Z,44.87
2022-08-03T14:03:10.804Z,44.81
2022-08-03T14:05:46.987Z,44.70
2022-08-03T14:08:15.946Z,43.96
2022-08-03T14:10:45.653Z,42.81
2022-08-03T14:13:17.439Z,42.00
2022-08-03T14:15:51.180Z,41.71
2022-08-03T14:18:28.855Z,41.74
2022-08-03T14:21:06.739Z,42.16
2022-08-03T14:23:38.103Z,42.02
2022-08-03T14:26:07.613Z,41.61
2022-08-03T14:28:39.385Z,41.71
2022-08-03T14:31:08.549Z,41.77
2022-08-03T14:33:56.630Z,41.49
2022-08-03T14:36:25.750Z,40.68
2022-08-03T14:39:01.074Z,40.78
2022-08-03T14:41:30.159Z,41.15
2022-08-03T14:44:00.526Z,40.99
2022-08-03T14:46:32.438Z,40.75
2022-08-03T14:50:24.424Z,40.84
2022-08-03T14:51:53.528Z,41.41
2022-08-03T14:54:23.739Z,40.27
2022-08-03T14:56:52.590Z,40.09
2022-08-03T14:59:21.559Z,39.66
2022-08-03T15:02:05.575Z,40.43
2022-08-03T15:04:36.323Z,41.00
2022-08-03T15:07:06.085Z,41.36
2022-08-03T15:09:34.909Z,41.45
2022-08-03T15:12:04.135Z,41.09
2022-08-03T15:14:34.923Z,40.55
2022-08-03T15:17:07.355Z,38.77
2022-08-03T15:20:00.930Z,37.56
2022-08-03T15:22:34.653Z,38.04
2022-08-03T15:26:04.010Z,37.42
2022-08-03T15:28:04.094Z,37.70
2022-08-03T15:30:37.129Z,38.11
2022-08-03T15:33:06.130Z,38.93
2022-08-03T15:35:35.696Z,39.46
2022-08-03T15:38:09.006Z,40.08
2022-08-03T15:40:38.408Z,40.68
2022-08-03T15:43:07.714Z,40.89
2022-08-03T15:45:36.977Z,41.02
2022-08-03T15:48:06.513Z,41.16
2022-08-03T15:50:37.971Z,41.36
2022-08-03T15:53:06.588Z,41.55
2022-08-03T15:55:35.395Z,42.00
2022-08-03T15:59:03.267Z,42.31
2022-08-03T16:00:52.616Z,43.15
2022-08-03T16:03:23.310Z,43.53
2022-08-03T16:05:52.201Z,43.76
2022-08-03T16:08:21.370Z,43.52
2022-08-03T16:10:50.582Z,42.12
2022-08-03T16:13:23.630Z,41.98
2022-08-03T16:16:12.872Z,41.26
2022-08-03T16:18:42.343Z,41.79
2022-08-03T16:21:10.936Z,42.23
2022-08-03T16:23:47.342Z,42.81
2022-08-03T16:26:16.154Z,43.22
2022-08-03T16:28:47.723Z,43.95
2022-08-03T16:31:16.454Z,44.48
2022-08-03T16:33:45.047Z,44.93
2022-08-03T16:36:13.836Z,45.13
2022-08-03T16:38:42.417Z,45.66
2022-08-03T16:41:11.197Z,46.61
2022-08-03T16:43:40.042Z,46.55
2022-08-03T16:46:08.670Z,47.17
2022-08-03T16:48:37.676Z,46.71
2022-08-03T16:51:06.447Z,46.98
2022-08-03T16:54:05.787Z,47.84
2022-08-03T16:56:23.888Z,47.49
2022-08-03T16:58:52.565Z,47.55
2022-08-03T17:01:24.738Z,47.83
2022-08-03T17:04:04.629Z,48.19
2022-08-03T17:06:44.924Z,48.94
2022-08-03T17:09:20.696Z,49.96
2022-08-03T17:11:51.951Z,49.88
2022-08-03T17:14:29.322Z,50.07
2022-08-03T17:17:01.457Z,50.19
2022-08-03T17:19:35.206Z,51.02
2022-08-03T17:22:36.104Z,51.13
2022-08-03T17:25:09.780Z,51.21
2022-08-03T17:28:50.948Z,52.05
2022-08-03T17:31:01.267Z,53.45
2022-08-03T17:33:35.620Z,53.87
2022-08-03T17:36:04.815Z,53.73
2022-08-03T17:38:38.691Z,53.84
2022-08-03T17:41:10.891Z,55.17
2022-08-03T17:46:34.539Z,56.37
2022-08-03T17:49:03.637Z,56.11
2022-08-03T17:52:28.992Z,58.21
2022-08-03T17:55:56.823Z,57.92
2022-08-03T17:58:18.831Z,57.81
2022-08-03T18:02:00.411Z,59.42
2022-08-03T18:04:30.635Z,59.93
2022-08-03T18:07:11.635Z,59.21
2022-08-03T18:10:05.989Z,60.28
2022-08-03T18:12:52.723Z,59.86
2022-08-03T18:15:35.232Z,61.06
2022-08-03T18:18:10.801Z,62.11
2022-08-03T18:20:42.059Z,62.77
2022-08-03T18:23:25.105Z,61.74
2022-08-03T18:26:07.538Z,61.71
2022-08-03T18:28:41.039Z,62.09
2022-08-03T18:31:12.868Z,62.64
2022-08-03T18:34:17.260Z,62.25
2022-08-03T18:36:56.305Z,62.56
2022-08-03T18:39:26.868Z,62.97
2022-08-03T18:41:55.552Z,63.42
2022-08-03T18:44:45.612Z,63.55
2022-08-03T18:48:02.620Z,64.19
2022-08-03T18:50:59.128Z,63.94
2022-08-03T18:54:02.363Z,64.47
2022-08-03T18:56:58.459Z,64.82
2022-08-03T19:00:04.983Z,64.73
2022-08-03T19:02:48.980Z,65.29
2022-08-03T19:05:22.768Z,65.24
2022-08-03T19:08:09.303Z,66.01
2022-08-03T19:10:57.894Z,65.03
2022-08-03T19:13:40.681Z,65.51
2022-08-03T19:16:24.980Z,67.15
2022-08-03T19:18:56.268Z,66.95
2022-08-03T19:21:26.959Z,68.23
2022-08-03T19:23:59.537Z,68.63
2022-08-03T19:26:30.926Z,67.35
2022-08-03T19:28:59.894Z,67.35
2022-08-03T19:31:31.050Z,66.99
2022-08-03T19:34:04.433Z,67.68
2022-08-03T19:36:40.527Z,68.00
2022-08-03T19:39:14.479Z,66.65
2022-08-03T19:41:47.239Z,66.03
2022-08-03T19:44:26.584Z,65.27
2022-08-03T19:47:06.358Z,64.68
2022-08-03T19:50:05.904Z,64.32
2022-08-03T19:52:31.449Z,63.93
2022-08-03T19:55:02.466Z,63.71
2022-08-03T19:57:36.769Z,63.27
2022-08-03T20:00:10.338Z,62.85
2022-08-03T20:02:41.008Z,62.78
2022-08-03T20:05:14.743Z,62.91
2022-08-03T20:07:48.343Z,62.85
2022-08-03T20:10:18.446Z,62.91
2022-08-03T20:12:51.365Z,63.12
2022-08-03T20:15:22.377Z,63.36
2022-08-03T20:18:00.830Z,63.27
2022-08-03T20:20:38.021Z,63.09
2022-08-03T20:23:16.826Z,63.18
2022-08-03T20:25:57.407Z,63.14
2022-08-03T20:28:50.125Z,63.02
2022-08-03T20:31:30.615Z,62.92
2022-08-03T20:34:06.607Z,65.03
2022-08-03T20:36:35.425Z,63.90
2022-08-03T20:39:07.501Z,64.16
2022-08-03T20:41:36.814Z,64.61
2022-08-03T20:44:06.369Z,64.89
2022-08-03T20:46:50.150Z,65.68
2022-08-03T20:49:24.188Z,66.88
2022-08-03T20:51:53.758Z,66.56
2022-08-03T20:54:29.550Z,66.03
2022-08-03T20:57:14.035Z,66.55
2022-08-03T20:59:50.108Z,66.38
2022-08-03T21:02:28.962Z,67.09
2022-08-03T21:05:03.777Z,66.54
2022-08-03T21:08:04.951Z,66.98
2022-08-03T21:10:41.984Z,68.47
2022-08-03T21:12:54.884Z,55.04
2022-08-03T21:13:46.766Z,68.11
2022-08-03T21:16:27.263Z,68.04
2022-08-03T21:19:00.341Z,67.42
2022-08-03T21:21:32.841Z,68.57
2022-08-03T21:24:03.915Z,67.30
2022-08-03T21:26:35.417Z,67.42
2022-08-03T21:29:03.995Z,68.11
2022-08-03T21:31:32.881Z,68.37
2022-08-03T21:34:07.980Z,69.88
2022-08-03T21:36:37.924Z,69.64
2022-08-03T21:39:10.099Z,69.51
2022-08-03T21:41:40.393Z,69.18
2022-08-03T21:44:09.651Z,68.67
2022-08-03T21:46:42.796Z,68.66
2022-08-03T21:50:05.756Z,69.34
2022-08-03T21:52:07.488Z,69.81
2022-08-03T21:54:43.687Z,69.56
2022-08-03T21:57:24.332Z,69.27
2022-08-03T21:59:57.293Z,68.91
2022-08-03T22:02:31.559Z,68.81
2022-08-03T22:05:05.198Z,68.36
2022-08-03T22:07:35.547Z,68.94
2022-08-03T22:10:07.143Z,68.98
2022-08-03T22:12:36.764Z,69.30
2022-08-03T22:15:12.875Z,68.83
2022-08-03T22:17:54.709Z,68.57
2022-08-03T22:20:28.935Z,68.67
2022-08-03T22:23:07.255Z,69.70
2022-08-03T22:25:39.945Z,68.78
2022-08-03T22:28:12.909Z,68.91
2022-08-03T22:30:42.783Z,68.69
2022-08-03T22:33:13.490Z,69.18
2022-08-03T22:35:51.664Z,69.18
2022-08-03T22:38:20.459Z,69.13
2022-08-03T22:40:52.661Z,68.28
2022-08-03T22:43:26.180Z,68.86
2022-08-03T22:46:10.627Z,68.76
2022-08-03T22:48:42.384Z,69.16
2022-08-03T22:51:11.328Z,69.03
2022-08-03T22:53:42.680Z,69.64
2022-08-03T22:56:12.222Z,69.80
2022-08-03T22:58:40.933Z,69.89
2022-08-03T23:01:13.272Z,70.37
2022-08-03T23:04:01.040Z,69.85
2022-08-03T23:06:40.344Z,69.83
2022-08-03T23:09:14.163Z,70.14
2022-08-03T23:11:46.004Z,70.79
2022-08-03T23:14:18.781Z,71.17
2022-08-03T23:16:48.198Z,70.46
2022-08-03T23:19:25.949Z,71.26
2022-08-03T23:22:02.327Z,71.35
2022-08-03T23:24:36.488Z,71.62
2022-08-03T23:27:07.659Z,71.43
2022-08-03T23:29:39.105Z,71.77
2022-08-03T23:32:08.262Z,72.10
2022-08-03T23:34:58.184Z,71.84
2022-08-03T23:37:27.303Z,72.06
2022-08-03T23:39:57.546Z,71.92
2022-08-03T23:42:27.773Z,72.29
2022-08-03T23:45:05.643Z,72.03
2022-08-03T23:47:46.446Z,72.37
2022-08-03T23:50:18.929Z,72.30
2022-08-03T23:53:02.175Z,72.28
2022-08-03T23:55:53.465Z,72.58
2022-08-03T23:58:49.967Z,72.29
